sensor_id;sensor_type;location;lat;lon;timestamp;temperature;humidity
59148;DHT22;44930;52.878;6.168;2023-02-18T00:01:54;8.10;99.90
59148;DHT22;44930;52.878;6.168;2023-02-18T00:04:20;8.20;99.90
59148;DHT22;44930;52.878;6.168;2023-02-18T00:06:46;8.10;99.90
59148;DHT22;44930;52.878;6.168;2023-02-18T00:09:12;7.90;99.90
59148;DHT22;44930;52.878;6.168;2023-02-18T00:11:37;8.10;99.90
59148;DHT22;44930;52.878;6.168;2023-02-18T00:14:06;8.00;99.90
59148;DHT22;44930;52.878;6.168;2023-02-18T00:16:31;8.20;99.90
59148;DHT22;44930;52.878;6.168;2023-02-18T00:18:59;8.20;99.90
59148;DHT22;44930;52.878;6.168;2023-02-18T00:21:25;8.10;99.90
59148;DHT22;44930;52.878;6.168;2023-02-18T00:23:51;8.20;99.90
59148;DHT22;44930;52.878;6.168;2023-02-18T00:26:18;8.20;99.90
59148;DHT22;44930;52.878;6.168;2023-02-18T00:28:44;8.00;99.90
59148;DHT22;44930;52.878;6.168;2023-02-18T00:31:37;8.10;99.90
59148;DHT22;44930;52.878;6.168;2023-02-18T00:34:03;8.10;99.90
59148;DHT22;44930;52.878;6.168;2023-02-18T00:36:29;8.20;99.90
59148;DHT22;44930;52.878;6.168;2023-02-18T00:38:59;8.20;99.90
59148;DHT22;44930;52.878;6.168;2023-02-18T00:41:26;8.30;99.90
59148;DHT22;44930;52.878;6.168;2023-02-18T00:43:53;8.40;99.90
59148;DHT22;44930;52.878;6.168;2023-02-18T00:46:19;8.30;99.90
59148;DHT22;44930;52.878;6.168;2023-02-18T00:48:44;8.20;99.90
59148;DHT22;44930;52.878;6.168;2023-02-18T00:51:10;8.50;99.90
59148;DHT22;44930;52.878;6.168;2023-02-18T00:53:36;8.40;99.90
59148;DHT22;44930;52.878;6.168;2023-02-18T00:56:03;8.50;99.90
59148;DHT22;44930;52.878;6.168;2023-02-18T00:58:28;8.40;99.90
59148;DHT22;44930;52.878;6.168;2023-02-18T01:00:55;8.40;99.90
59148;DHT22;44930;52.878;6.168;2023-02-18T01:03:20;8.40;99.90
59148;DHT22;44930;52.878;6.168;2023-02-18T01:05:48;8.50;99.90
59148;DHT22;44930;52.878;6.168;2023-02-18T01:08:15;8.50;99.90
59148;DHT22;44930;52.878;6.168;2023-02-18T01:10:43;8.70;99.90
59148;DHT22;44930;52.878;6.168;2023-02-18T01:13:09;8.50;99.90
59148;DHT22;44930;52.878;6.168;2023-02-18T01:15:37;8.50;99.90
59148;DHT22;44930;52.878;6.168;2023-02-18T01:18:02;8.40;99.90
59148;DHT22;44930;52.878;6.168;2023-02-18T01:20:28;8.50;99.90
59148;DHT22;44930;52.878;6.168;2023-02-18T01:22:54;8.30;99.90
59148;DHT22;44930;52.878;6.168;2023-02-18T01:25:20;8.30;99.90
59148;DHT22;44930;52.878;6.168;2023-02-18T01:27:45;8.40;99.90
59148;DHT22;44930;52.878;6.168;2023-02-18T01:30:14;8.40;99.90
59148;DHT22;44930;52.878;6.168;2023-02-18T01:32:39;8.50;99.90
59148;DHT22;44930;52.878;6.168;2023-02-18T01:35:06;8.50;99.90
59148;DHT22;44930;52.878;6.168;2023-02-18T01:37:32;8.40;99.90
59148;DHT22;44930;52.878;6.168;2023-02-18T01:39:58;8.60;99.90
59148;DHT22;44930;52.878;6.168;2023-02-18T01:42:27;8.50;99.90
59148;DHT22;44930;52.878;6.168;2023-02-18T01:44:53;8.50;99.90
59148;DHT22;44930;52.878;6.168;2023-02-18T01:47:19;8.70;99.90
59148;DHT22;44930;52.878;6.168;2023-02-18T01:49:48;8.60;99.90
59148;DHT22;44930;52.878;6.168;2023-02-18T01:54:47;8.60;99.90
59148;DHT22;44930;52.878;6.168;2023-02-18T01:57:28;8.60;99.90
59148;DHT22;44930;52.878;6.168;2023-02-18T01:59:55;8.60;99.90
59148;DHT22;44930;52.878;6.168;2023-02-18T02:02:24;8.60;99.90
59148;DHT22;44930;52.878;6.168;2023-02-18T02:04:51;8.40;99.90
59148;DHT22;44930;52.878;6.168;2023-02-18T02:07:18;8.50;99.90
59148;DHT22;44930;52.878;6.168;2023-02-18T02:09:47;8.70;99.90
59148;DHT22;44930;52.878;6.168;2023-02-18T02:36:55;8.80;99.90
59148;DHT22;44930;52.878;6.168;2023-02-18T02:42:03;8.60;99.90
59148;DHT22;44930;52.878;6.168;2023-02-18T02:44:40;8.60;99.90
59148;DHT22;44930;52.878;6.168;2023-02-18T02:47:10;8.70;99.90
59148;DHT22;44930;52.878;6.168;2023-02-18T02:50:08;8.60;99.90
59148;DHT22;44930;52.878;6.168;2023-02-18T02:52:39;8.90;99.90
59148;DHT22;44930;52.878;6.168;2023-02-18T02:55:10;8.80;99.90
59148;DHT22;44930;52.878;6.168;2023-02-18T02:57:49;8.90;99.90
59148;DHT22;44930;52.878;6.168;2023-02-18T03:00:18;8.80;99.90
59148;DHT22;44930;52.878;6.168;2023-02-18T03:03:02;9.10;99.90
59148;DHT22;44930;52.878;6.168;2023-02-18T03:11:15;9.00;99.90
59148;DHT22;44930;52.878;6.168;2023-02-18T03:14:11;9.20;99.90
59148;DHT22;44930;52.878;6.168;2023-02-18T03:17:18;8.80;99.90
59148;DHT22;44930;52.878;6.168;2023-02-18T03:22:22;8.90;99.90
59148;DHT22;44930;52.878;6.168;2023-02-18T03:24:52;9.20;99.90
59148;DHT22;44930;52.878;6.168;2023-02-18T03:27:28;8.90;99.90
59148;DHT22;44930;52.878;6.168;2023-02-18T03:30:02;8.90;99.90
59148;DHT22;44930;52.878;6.168;2023-02-18T03:32:30;8.90;99.90
59148;DHT22;44930;52.878;6.168;2023-02-18T03:35:04;9.00;99.90
59148;DHT22;44930;52.878;6.168;2023-02-18T03:37:32;9.00;99.90
59148;DHT22;44930;52.878;6.168;2023-02-18T03:40:02;9.10;99.90
59148;DHT22;44930;52.878;6.168;2023-02-18T03:42:28;9.10;99.90
59148;DHT22;44930;52.878;6.168;2023-02-18T03:44:54;9.10;99.90
59148;DHT22;44930;52.878;6.168;2023-02-18T03:47:19;9.20;99.90
59148;DHT22;44930;52.878;6.168;2023-02-18T03:49:45;9.10;99.90
59148;DHT22;44930;52.878;6.168;2023-02-18T03:52:11;9.10;99.90
59148;DHT22;44930;52.878;6.168;2023-02-18T03:54:36;9.20;99.90
59148;DHT22;44930;52.878;6.168;2023-02-18T03:57:02;9.10;99.90
59148;DHT22;44930;52.878;6.168;2023-02-18T03:59:28;9.30;99.90
59148;DHT22;44930;52.878;6.168;2023-02-18T04:01:53;9.20;99.90
59148;DHT22;44930;52.878;6.168;2023-02-18T04:04:19;9.20;99.90
59148;DHT22;44930;52.878;6.168;2023-02-18T04:06:44;9.30;99.90
59148;DHT22;44930;52.878;6.168;2023-02-18T04:09:10;9.30;99.90
59148;DHT22;44930;52.878;6.168;2023-02-18T04:11:38;9.20;99.90
59148;DHT22;44930;52.878;6.168;2023-02-18T04:14:04;9.10;99.90
59148;DHT22;44930;52.878;6.168;2023-02-18T04:16:30;9.10;99.90
59148;DHT22;44930;52.878;6.168;2023-02-18T04:18:55;9.10;99.90
59148;DHT22;44930;52.878;6.168;2023-02-18T04:21:21;9.10;99.90
59148;DHT22;44930;52.878;6.168;2023-02-18T04:23:46;9.10;99.90
59148;DHT22;44930;52.878;6.168;2023-02-18T04:26:12;9.10;99.90
59148;DHT22;44930;52.878;6.168;2023-02-18T04:28:38;9.20;99.90
59148;DHT22;44930;52.878;6.168;2023-02-18T04:31:04;9.40;99.90
59148;DHT22;44930;52.878;6.168;2023-02-18T04:33:29;9.20;99.90
59148;DHT22;44930;52.878;6.168;2023-02-18T04:35:55;9.30;99.90
59148;DHT22;44930;52.878;6.168;2023-02-18T04:38:21;9.10;99.90
59148;DHT22;44930;52.878;6.168;2023-02-18T04:40:46;9.10;99.90
59148;DHT22;44930;52.878;6.168;2023-02-18T04:43:12;9.30;99.90
59148;DHT22;44930;52.878;6.168;2023-02-18T04:45:37;9.10;99.90
59148;DHT22;44930;52.878;6.168;2023-02-18T04:48:03;9.10;99.90
59148;DHT22;44930;52.878;6.168;2023-02-18T04:50:29;9.10;99.90
59148;DHT22;44930;52.878;6.168;2023-02-18T04:52:55;9.20;99.90
59148;DHT22;44930;52.878;6.168;2023-02-18T04:55:20;9.30;99.90
59148;DHT22;44930;52.878;6.168;2023-02-18T04:57:46;9.30;99.90
59148;DHT22;44930;52.878;6.168;2023-02-18T05:00:15;9.30;99.90
59148;DHT22;44930;52.878;6.168;2023-02-18T05:02:41;9.10;99.90
59148;DHT22;44930;52.878;6.168;2023-02-18T05:05:07;9.20;99.90
59148;DHT22;44930;52.878;6.168;2023-02-18T05:07:33;9.40;99.90
59148;DHT22;44930;52.878;6.168;2023-02-18T05:09:59;9.50;99.90
59148;DHT22;44930;52.878;6.168;2023-02-18T05:12:24;9.40;99.90
59148;DHT22;44930;52.878;6.168;2023-02-18T05:14:50;9.50;99.90
59148;DHT22;44930;52.878;6.168;2023-02-18T05:17:16;9.60;99.90
59148;DHT22;44930;52.878;6.168;2023-02-18T05:19:41;9.60;99.90
59148;DHT22;44930;52.878;6.168;2023-02-18T05:22:07;9.60;99.90
59148;DHT22;44930;52.878;6.168;2023-02-18T05:24:33;9.60;99.90
59148;DHT22;44930;52.878;6.168;2023-02-18T05:26:58;9.70;99.90
59148;DHT22;44930;52.878;6.168;2023-02-18T05:29:24;9.80;99.90
59148;DHT22;44930;52.878;6.168;2023-02-18T05:31:49;9.90;99.90
59148;DHT22;44930;52.878;6.168;2023-02-18T05:34:16;9.80;99.90
59148;DHT22;44930;52.878;6.168;2023-02-18T05:36:42;9.90;99.90
59148;DHT22;44930;52.878;6.168;2023-02-18T05:41:33;9.90;99.90
59148;DHT22;44930;52.878;6.168;2023-02-18T05:43:59;9.90;99.90
59148;DHT22;44930;52.878;6.168;2023-02-18T05:46:43;9.80;99.90
59148;DHT22;44930;52.878;6.168;2023-02-18T05:49:08;9.90;99.90
59148;DHT22;44930;52.878;6.168;2023-02-18T05:51:34;10.10;99.90
59148;DHT22;44930;52.878;6.168;2023-02-18T05:54:00;9.90;99.90
59148;DHT22;44930;52.878;6.168;2023-02-18T05:58:51;9.70;99.90
59148;DHT22;44930;52.878;6.168;2023-02-18T06:01:17;9.80;99.90
59148;DHT22;44930;52.878;6.168;2023-02-18T06:03:42;9.80;99.90
59148;DHT22;44930;52.878;6.168;2023-02-18T06:06:08;10.10;99.90
59148;DHT22;44930;52.878;6.168;2023-02-18T06:08:33;9.90;99.90
59148;DHT22;44930;52.878;6.168;2023-02-18T06:10:59;9.80;99.90
59148;DHT22;44930;52.878;6.168;2023-02-18T06:13:25;9.90;99.90
59148;DHT22;44930;52.878;6.168;2023-02-18T06:15:51;9.90;99.90
59148;DHT22;44930;52.878;6.168;2023-02-18T06:18:17;10.10;99.90
59148;DHT22;44930;52.878;6.168;2023-02-18T06:20:42;9.90;99.90
59148;DHT22;44930;52.878;6.168;2023-02-18T06:23:08;9.90;99.90
59148;DHT22;44930;52.878;6.168;2023-02-18T06:25:34;9.80;99.90
59148;DHT22;44930;52.878;6.168;2023-02-18T06:27:59;10.00;99.90
59148;DHT22;44930;52.878;6.168;2023-02-18T06:30:25;9.80;99.90
59148;DHT22;44930;52.878;6.168;2023-02-18T06:32:50;10.10;99.90
59148;DHT22;44930;52.878;6.168;2023-02-18T06:35:16;10.10;99.90
59148;DHT22;44930;52.878;6.168;2023-02-18T06:37:41;10.00;99.90
59148;DHT22;44930;52.878;6.168;2023-02-18T06:40:08;10.10;99.90
59148;DHT22;44930;52.878;6.168;2023-02-18T06:42:33;10.10;99.90
59148;DHT22;44930;52.878;6.168;2023-02-18T06:44:59;10.00;99.90
59148;DHT22;44930;52.878;6.168;2023-02-18T06:47:24;10.10;99.90
59148;DHT22;44930;52.878;6.168;2023-02-18T06:49:50;10.30;99.90
59148;DHT22;44930;52.878;6.168;2023-02-18T06:52:15;10.10;99.90
59148;DHT22;44930;52.878;6.168;2023-02-18T06:54:41;10.30;99.90
59148;DHT22;44930;52.878;6.168;2023-02-18T06:57:07;10.20;99.90
59148;DHT22;44930;52.878;6.168;2023-02-18T06:59:32;10.30;99.90
59148;DHT22;44930;52.878;6.168;2023-02-18T07:01:58;10.30;99.90
59148;DHT22;44930;52.878;6.168;2023-02-18T07:04:23;10.10;99.90
59148;DHT22;44930;52.878;6.168;2023-02-18T07:06:49;10.10;99.90
59148;DHT22;44930;52.878;6.168;2023-02-18T07:09:14;10.10;99.90
59148;DHT22;44930;52.878;6.168;2023-02-18T07:11:40;10.10;99.90
59148;DHT22;44930;52.878;6.168;2023-02-18T07:14:05;10.20;99.90
59148;DHT22;44930;52.878;6.168;2023-02-18T07:16:31;10.10;99.90
59148;DHT22;44930;52.878;6.168;2023-02-18T07:18:56;10.20;99.90
59148;DHT22;44930;52.878;6.168;2023-02-18T07:21:22;10.20;99.90
59148;DHT22;44930;52.878;6.168;2023-02-18T07:23:48;10.20;99.90
59148;DHT22;44930;52.878;6.168;2023-02-18T07:26:13;10.20;99.90
59148;DHT22;44930;52.878;6.168;2023-02-18T07:28:40;10.20;99.90
59148;DHT22;44930;52.878;6.168;2023-02-18T07:31:06;10.10;99.90
59148;DHT22;44930;52.878;6.168;2023-02-18T07:33:32;10.10;99.90
59148;DHT22;44930;52.878;6.168;2023-02-18T07:35:59;10.10;99.90
59148;DHT22;44930;52.878;6.168;2023-02-18T07:38:26;10.10;99.90
59148;DHT22;44930;52.878;6.168;2023-02-18T07:40:52;10.20;99.90
59148;DHT22;44930;52.878;6.168;2023-02-18T07:43:18;10.20;99.90
59148;DHT22;44930;52.878;6.168;2023-02-18T07:45:44;10.40;99.90
59148;DHT22;44930;52.878;6.168;2023-02-18T07:48:10;10.40;99.90
59148;DHT22;44930;52.878;6.168;2023-02-18T07:50:41;10.20;99.90
59148;DHT22;44930;52.878;6.168;2023-02-18T07:53:07;10.10;99.90
59148;DHT22;44930;52.878;6.168;2023-02-18T07:55:33;10.30;99.90
59148;DHT22;44930;52.878;6.168;2023-02-18T07:58:20;10.10;99.90
59148;DHT22;44930;52.878;6.168;2023-02-18T08:00:46;10.20;99.90
59148;DHT22;44930;52.878;6.168;2023-02-18T08:03:15;10.10;99.90
59148;DHT22;44930;52.878;6.168;2023-02-18T08:05:41;10.20;99.90
59148;DHT22;44930;52.878;6.168;2023-02-18T08:08:06;10.00;99.90
59148;DHT22;44930;52.878;6.168;2023-02-18T08:10:32;10.10;99.90
59148;DHT22;44930;52.878;6.168;2023-02-18T08:12:57;10.20;99.90
59148;DHT22;44930;52.878;6.168;2023-02-18T08:15:23;10.30;99.90
59148;DHT22;44930;52.878;6.168;2023-02-18T08:17:49;10.20;99.90
59148;DHT22;44930;52.878;6.168;2023-02-18T08:20:14;10.30;99.90
59148;DHT22;44930;52.878;6.168;2023-02-18T08:22:40;10.10;99.90
59148;DHT22;44930;52.878;6.168;2023-02-18T08:25:05;10.20;99.90
59148;DHT22;44930;52.878;6.168;2023-02-18T08:27:31;10.20;99.90
59148;DHT22;44930;52.878;6.168;2023-02-18T08:29:57;10.20;99.90
59148;DHT22;44930;52.878;6.168;2023-02-18T08:32:27;10.20;99.90
59148;DHT22;44930;52.878;6.168;2023-02-18T08:34:53;10.20;99.90
59148;DHT22;44930;52.878;6.168;2023-02-18T08:37:19;10.30;99.90
59148;DHT22;44930;52.878;6.168;2023-02-18T08:39:45;10.40;99.90
59148;DHT22;44930;52.878;6.168;2023-02-18T08:42:10;10.10;99.90
59148;DHT22;44930;52.878;6.168;2023-02-18T08:44:36;10.20;99.90
59148;DHT22;44930;52.878;6.168;2023-02-18T08:47:01;10.20;99.90
59148;DHT22;44930;52.878;6.168;2023-02-18T08:49:27;10.20;99.90
59148;DHT22;44930;52.878;6.168;2023-02-18T08:51:52;10.20;99.90
59148;DHT22;44930;52.878;6.168;2023-02-18T08:54:18;10.20;99.90
59148;DHT22;44930;52.878;6.168;2023-02-18T08:56:44;10.10;99.90
59148;DHT22;44930;52.878;6.168;2023-02-18T08:59:09;10.10;99.90
59148;DHT22;44930;52.878;6.168;2023-02-18T09:01:35;10.10;99.90
59148;DHT22;44930;52.878;6.168;2023-02-18T09:04:01;10.00;99.90
59148;DHT22;44930;52.878;6.168;2023-02-18T09:06:27;10.00;99.90
59148;DHT22;44930;52.878;6.168;2023-02-18T09:08:52;10.00;99.90
59148;DHT22;44930;52.878;6.168;2023-02-18T09:11:18;10.00;99.90
59148;DHT22;44930;52.878;6.168;2023-02-18T09:13:44;10.00;99.90
59148;DHT22;44930;52.878;6.168;2023-02-18T09:16:13;10.00;99.90
59148;DHT22;44930;52.878;6.168;2023-02-18T09:18:39;10.00;99.90
59148;DHT22;44930;52.878;6.168;2023-02-18T09:23:34;9.90;99.90
59148;DHT22;44930;52.878;6.168;2023-02-18T09:26:04;10.10;99.90
59148;DHT22;44930;52.878;6.168;2023-02-18T09:28:29;10.10;99.90
59148;DHT22;44930;52.878;6.168;2023-02-18T09:30:55;10.00;99.90
59148;DHT22;44930;52.878;6.168;2023-02-18T09:33:21;10.00;99.90
59148;DHT22;44930;52.878;6.168;2023-02-18T09:38:15;10.20;99.90
59148;DHT22;44930;52.878;6.168;2023-02-18T09:40:47;10.00;99.90
59148;DHT22;44930;52.878;6.168;2023-02-18T09:43:30;9.90;99.90
59148;DHT22;44930;52.878;6.168;2023-02-18T09:45:58;10.00;99.90
59148;DHT22;44930;52.878;6.168;2023-02-18T09:48:27;10.00;99.90
59148;DHT22;44930;52.878;6.168;2023-02-18T09:50:56;9.90;99.90
59148;DHT22;44930;52.878;6.168;2023-02-18T09:53:23;10.00;99.90
59148;DHT22;44930;52.878;6.168;2023-02-18T09:55:54;9.90;99.90
59148;DHT22;44930;52.878;6.168;2023-02-18T09:58:27;10.20;99.90
59148;DHT22;44930;52.878;6.168;2023-02-18T10:03:37;10.10;99.90
59148;DHT22;44930;52.878;6.168;2023-02-18T10:06:10;10.20;99.90
59148;DHT22;44930;52.878;6.168;2023-02-18T10:11:21;10.60;99.90
59148;DHT22;44930;52.878;6.168;2023-02-18T10:13:47;10.70;99.90
59148;DHT22;44930;52.878;6.168;2023-02-18T10:16:17;11.00;99.90
59148;DHT22;44930;52.878;6.168;2023-02-18T10:18:45;11.00;99.90
59148;DHT22;44930;52.878;6.168;2023-02-18T10:21:33;10.90;99.90
59148;DHT22;44930;52.878;6.168;2023-02-18T10:26:54;11.10;99.90
59148;DHT22;44930;52.878;6.168;2023-02-18T10:29:20;11.00;99.90
59148;DHT22;44930;52.878;6.168;2023-02-18T10:32:04;11.00;99.90
59148;DHT22;44930;52.878;6.168;2023-02-18T10:34:45;11.00;99.90
59148;DHT22;44930;52.878;6.168;2023-02-18T10:37:30;11.10;99.90
59148;DHT22;44930;52.878;6.168;2023-02-18T10:50:46;11.00;99.90
59148;DHT22;44930;52.878;6.168;2023-02-18T10:53:21;11.20;99.90
59148;DHT22;44930;52.878;6.168;2023-02-18T10:55:50;11.30;99.90
59148;DHT22;44930;52.878;6.168;2023-02-18T10:58:29;11.20;99.90
59148;DHT22;44930;52.878;6.168;2023-02-18T11:00:55;11.50;99.90
59148;DHT22;44930;52.878;6.168;2023-02-18T11:03:23;11.40;99.90
59148;DHT22;44930;52.878;6.168;2023-02-18T11:05:52;11.40;99.90
59148;DHT22;44930;52.878;6.168;2023-02-18T11:08:25;11.50;99.90
59148;DHT22;44930;52.878;6.168;2023-02-18T11:10:52;11.40;99.90
59148;DHT22;44930;52.878;6.168;2023-02-18T11:13:28;11.30;99.90
59148;DHT22;44930;52.878;6.168;2023-02-18T11:16:01;11.40;99.90
59148;DHT22;44930;52.878;6.168;2023-02-18T11:18:35;11.00;99.90
59148;DHT22;44930;52.878;6.168;2023-02-18T11:21:19;11.20;99.90
59148;DHT22;44930;52.878;6.168;2023-02-18T11:23:47;11.30;99.90
59148;DHT22;44930;52.878;6.168;2023-02-18T11:26:15;11.20;99.90
59148;DHT22;44930;52.878;6.168;2023-02-18T11:28:47;11.40;99.90
59148;DHT22;44930;52.878;6.168;2023-02-18T11:31:22;11.40;99.90
59148;DHT22;44930;52.878;6.168;2023-02-18T11:33:58;11.40;99.90
59148;DHT22;44930;52.878;6.168;2023-02-18T11:36:31;11.80;99.90
59148;DHT22;44930;52.878;6.168;2023-02-18T11:39:03;11.60;99.90
59148;DHT22;44930;52.878;6.168;2023-02-18T11:41:39;11.40;99.90
59148;DHT22;44930;52.878;6.168;2023-02-18T11:44:21;11.70;99.90
59148;DHT22;44930;52.878;6.168;2023-02-18T11:47:01;11.80;99.90
59148;DHT22;44930;52.878;6.168;2023-02-18T11:49:27;11.70;99.90
59148;DHT22;44930;52.878;6.168;2023-02-18T11:51:54;11.50;99.90
59148;DHT22;44930;52.878;6.168;2023-02-18T11:57:02;11.90;99.90
59148;DHT22;44930;52.878;6.168;2023-02-18T11:59:31;11.80;99.90
59148;DHT22;44930;52.878;6.168;2023-02-18T12:05:20;12.20;99.90
59148;DHT22;44930;52.878;6.168;2023-02-18T12:10:46;12.00;99.90
59148;DHT22;44930;52.878;6.168;2023-02-18T12:13:30;11.80;99.90
59148;DHT22;44930;52.878;6.168;2023-02-18T12:18:35;11.90;99.90
59148;DHT22;44930;52.878;6.168;2023-02-18T12:21:35;12.20;99.90
59148;DHT22;44930;52.878;6.168;2023-02-18T12:24:14;12.20;99.90
59148;DHT22;44930;52.878;6.168;2023-02-18T12:32:36;12.20;99.90
59148;DHT22;44930;52.878;6.168;2023-02-18T12:46:21;12.50;99.90
59148;DHT22;44930;52.878;6.168;2023-02-18T12:49:03;12.10;99.90
59148;DHT22;44930;52.878;6.168;2023-02-18T12:51:55;12.40;99.90
59148;DHT22;44930;52.878;6.168;2023-02-18T12:54:45;12.20;99.90
59148;DHT22;44930;52.878;6.168;2023-02-18T12:57:24;12.40;99.90
59148;DHT22;44930;52.878;6.168;2023-02-18T13:08:19;12.30;99.90
59148;DHT22;44930;52.878;6.168;2023-02-18T13:15:50;12.40;99.90
59148;DHT22;44930;52.878;6.168;2023-02-18T13:20:58;12.30;99.90
59148;DHT22;44930;52.878;6.168;2023-02-18T13:23:31;12.30;99.90
59148;DHT22;44930;52.878;6.168;2023-02-18T13:26:01;12.20;99.90
59148;DHT22;44930;52.878;6.168;2023-02-18T13:31:25;12.20;99.90
59148;DHT22;44930;52.878;6.168;2023-02-18T13:34:10;11.80;99.90
59148;DHT22;44930;52.878;6.168;2023-02-18T13:37:10;12.00;99.90
59148;DHT22;44930;52.878;6.168;2023-02-18T13:39:32;11.90;99.90
59148;DHT22;44930;52.878;6.168;2023-02-18T13:47:44;12.30;99.90
59148;DHT22;44930;52.878;6.168;2023-02-18T13:50:25;12.00;99.90
59148;DHT22;44930;52.878;6.168;2023-02-18T13:55:53;12.00;99.90
59148;DHT22;44930;52.878;6.168;2023-02-18T13:58:34;11.80;99.90
59148;DHT22;44930;52.878;6.168;2023-02-18T14:03:51;11.60;99.90
59148;DHT22;44930;52.878;6.168;2023-02-18T14:06:25;11.70;99.90
59148;DHT22;44930;52.878;6.168;2023-02-18T14:09:01;11.80;99.90
59148;DHT22;44930;52.878;6.168;2023-02-18T14:11:39;11.60;99.90
59148;DHT22;44930;52.878;6.168;2023-02-18T14:19:42;11.60;99.90
59148;DHT22;44930;52.878;6.168;2023-02-18T14:22:32;11.50;99.90
59148;DHT22;44930;52.878;6.168;2023-02-18T14:27:44;11.70;99.90
59148;DHT22;44930;52.878;6.168;2023-02-18T14:30:25;11.90;99.90
59148;DHT22;44930;52.878;6.168;2023-02-18T14:32:59;11.70;99.90
59148;DHT22;44930;52.878;6.168;2023-02-18T14:35:34;11.60;99.90
59148;DHT22;44930;52.878;6.168;2023-02-18T14:43:55;11.80;99.90
59148;DHT22;44930;52.878;6.168;2023-02-18T14:51:33;11.70;99.90
59148;DHT22;44930;52.878;6.168;2023-02-18T14:54:09;11.30;99.90
59148;DHT22;44930;52.878;6.168;2023-02-18T14:56:41;11.50;99.90
59148;DHT22;44930;52.878;6.168;2023-02-18T14:59:11;11.50;99.90
59148;DHT22;44930;52.878;6.168;2023-02-18T15:04:04;11.50;99.90
59148;DHT22;44930;52.878;6.168;2023-02-18T15:06:31;11.40;99.90
59148;DHT22;44930;52.878;6.168;2023-02-18T15:08:59;11.50;99.90
59148;DHT22;44930;52.878;6.168;2023-02-18T15:11:38;11.40;99.90
59148;DHT22;44930;52.878;6.168;2023-02-18T15:14:17;11.20;99.90
59148;DHT22;44930;52.878;6.168;2023-02-18T15:16:43;11.20;99.90
59148;DHT22;44930;52.878;6.168;2023-02-18T15:19:15;11.30;99.90
59148;DHT22;44930;52.878;6.168;2023-02-18T15:21:49;11.40;99.90
59148;DHT22;44930;52.878;6.168;2023-02-18T15:24:25;11.20;99.90
59148;DHT22;44930;52.878;6.168;2023-02-18T15:26:58;11.30;99.90
59148;DHT22;44930;52.878;6.168;2023-02-18T15:29:30;11.20;99.90
59148;DHT22;44930;52.878;6.168;2023-02-18T15:31:57;11.20;99.90
59148;DHT22;44930;52.878;6.168;2023-02-18T15:34:30;11.20;99.90
59148;DHT22;44930;52.878;6.168;2023-02-18T15:36:58;11.10;99.90
59148;DHT22;44930;52.878;6.168;2023-02-18T15:39:25;11.10;99.90
59148;DHT22;44930;52.878;6.168;2023-02-18T15:41:56;11.70;99.90
59148;DHT22;44930;52.878;6.168;2023-02-18T15:46:52;11.10;99.90
59148;DHT22;44930;52.878;6.168;2023-02-18T15:49:22;11.20;99.90
59148;DHT22;44930;52.878;6.168;2023-02-18T15:51:49;11.10;99.90
59148;DHT22;44930;52.878;6.168;2023-02-18T15:54:20;10.90;99.90
59148;DHT22;44930;52.878;6.168;2023-02-18T15:56:51;10.90;99.90
59148;DHT22;44930;52.878;6.168;2023-02-18T15:59:19;11.10;99.90
59148;DHT22;44930;52.878;6.168;2023-02-18T16:02:34;11.10;99.90
59148;DHT22;44930;52.878;6.168;2023-02-18T16:04:40;11.00;99.90
59148;DHT22;44930;52.878;6.168;2023-02-18T16:07:28;11.10;99.90
59148;DHT22;44930;52.878;6.168;2023-02-18T16:12:38;11.10;99.90
59148;DHT22;44930;52.878;6.168;2023-02-18T16:15:04;11.20;99.90
59148;DHT22;44930;52.878;6.168;2023-02-18T16:20:13;11.10;99.90
59148;DHT22;44930;52.878;6.168;2023-02-18T16:22:44;10.80;99.90
59148;DHT22;44930;52.878;6.168;2023-02-18T16:25:16;10.90;99.90
59148;DHT22;44930;52.878;6.168;2023-02-18T16:27:53;10.80;99.90
59148;DHT22;44930;52.878;6.168;2023-02-18T16:30:29;10.80;99.90
59148;DHT22;44930;52.878;6.168;2023-02-18T16:32:56;10.80;99.90
59148;DHT22;44930;52.878;6.168;2023-02-18T16:35:23;10.80;99.90
59148;DHT22;44930;52.878;6.168;2023-02-18T16:37:50;10.80;99.90
59148;DHT22;44930;52.878;6.168;2023-02-18T16:43:15;11.30;99.90
59148;DHT22;44930;52.878;6.168;2023-02-18T16:45:43;10.70;99.90
59148;DHT22;44930;52.878;6.168;2023-02-18T16:50:42;10.90;99.90
59148;DHT22;44930;52.878;6.168;2023-02-18T16:53:11;10.80;99.90
59148;DHT22;44930;52.878;6.168;2023-02-18T16:55:36;10.70;99.90
59148;DHT22;44930;52.878;6.168;2023-02-18T16:58:02;10.80;99.90
59148;DHT22;44930;52.878;6.168;2023-02-18T17:00:27;10.80;99.90
59148;DHT22;44930;52.878;6.168;2023-02-18T17:02:54;10.60;99.90
59148;DHT22;44930;52.878;6.168;2023-02-18T17:05:23;10.80;99.90
59148;DHT22;44930;52.878;6.168;2023-02-18T17:07:49;10.60;99.90
59148;DHT22;44930;52.878;6.168;2023-02-18T17:10:15;10.40;99.90
59148;DHT22;44930;52.878;6.168;2023-02-18T17:12:41;10.80;99.90
59148;DHT22;44930;52.878;6.168;2023-02-18T17:17:47;10.60;99.90
59148;DHT22;44930;52.878;6.168;2023-02-18T17:20:13;11.10;99.90
59148;DHT22;44930;52.878;6.168;2023-02-18T17:22:40;10.50;99.90
59148;DHT22;44930;52.878;6.168;2023-02-18T17:25:30;10.40;99.90
59148;DHT22;44930;52.878;6.168;2023-02-18T17:27:56;10.60;99.90
59148;DHT22;44930;52.878;6.168;2023-02-18T17:30:22;10.60;99.90
59148;DHT22;44930;52.878;6.168;2023-02-18T17:32:48;10.60;99.90
59148;DHT22;44930;52.878;6.168;2023-02-18T17:35:19;10.50;99.90
59148;DHT22;44930;52.878;6.168;2023-02-18T17:37:45;10.50;99.90
59148;DHT22;44930;52.878;6.168;2023-02-18T17:40:16;10.40;99.90
59148;DHT22;44930;52.878;6.168;2023-02-18T17:42:42;10.40;99.90
59148;DHT22;44930;52.878;6.168;2023-02-18T17:46:10;10.60;99.90
59148;DHT22;44930;52.878;6.168;2023-02-18T17:48:29;10.40;99.90
59148;DHT22;44930;52.878;6.168;2023-02-18T17:50:55;10.40;99.90
59148;DHT22;44930;52.878;6.168;2023-02-18T17:53:21;10.30;99.90
59148;DHT22;44930;52.878;6.168;2023-02-18T17:55:48;10.50;99.90
59148;DHT22;44930;52.878;6.168;2023-02-18T17:58:14;10.40;99.90
59148;DHT22;44930;52.878;6.168;2023-02-18T18:00:43;10.40;99.90
59148;DHT22;44930;52.878;6.168;2023-02-18T18:03:11;10.30;99.90
59148;DHT22;44930;52.878;6.168;2023-02-18T18:05:38;10.20;99.90
59148;DHT22;44930;52.878;6.168;2023-02-18T18:08:05;10.20;99.90
59148;DHT22;44930;52.878;6.168;2023-02-18T18:10:36;10.40;99.90
59148;DHT22;44930;52.878;6.168;2023-02-18T18:13:14;10.40;99.90
59148;DHT22;44930;52.878;6.168;2023-02-18T18:15:43;10.40;99.90
59148;DHT22;44930;52.878;6.168;2023-02-18T18:18:12;10.30;99.90
59148;DHT22;44930;52.878;6.168;2023-02-18T18:20:40;10.40;99.90
59148;DHT22;44930;52.878;6.168;2023-02-18T18:23:07;10.30;99.90
59148;DHT22;44930;52.878;6.168;2023-02-18T18:25:35;10.30;99.90
59148;DHT22;44930;52.878;6.168;2023-02-18T18:28:02;10.20;99.90
59148;DHT22;44930;52.878;6.168;2023-02-18T18:30:29;10.10;99.90
59148;DHT22;44930;52.878;6.168;2023-02-18T18:32:56;10.20;99.90
59148;DHT22;44930;52.878;6.168;2023-02-18T18:37:49;10.30;99.90